Time;durP1;ratioP1;P1;durP2;ratioP2;P2;SDS_P1;SDS_P2;PMS_P1;PMS_P2;Temp;Humidity;BMP_temperature;BMP_pressure;BME280_temperature;BME280_humidity;BME280_pressure;Samples;Min_cycle;Max_cycle;Signal;HPM_P1;HPM_P2
2022/05/01 00:00:59;;;;;;;5.50;5.00;;;12.60;73.10;;;;;;937396;149;27397;-75
2022/05/01 00:03:33;;;;;;;5.47;4.97;;;12.50;73.10;;;;;;938962;149;27364;-74
2022/05/01 00:05:59;;;;;;;5.17;4.60;;;12.50;73.20;;;;;;940220;149;27316;-75
2022/05/01 00:08:25;;;;;;;6.13;5.00;;;12.50;73.20;;;;;;938969;149;27340;-75
2022/05/01 00:10:51;;;;;;;5.30;4.80;;;12.50;73.30;;;;;;937818;149;27428;-75
2022/05/01 00:13:18;;;;;;;5.47;4.97;;;12.50;73.40;;;;;;943344;147;27454;-75
2022/05/01 00:15:45;;;;;;;5.30;4.80;;;12.50;73.60;;;;;;951388;147;27780;-74
2022/05/01 00:18:11;;;;;;;4.63;4.23;;;12.50;73.70;;;;;;951269;147;27387;-75
2022/05/01 00:20:38;;;;;;;10.00;5.10;;;12.50;73.80;;;;;;950776;147;27465;-74
2022/05/01 00:23:04;;;;;;;5.33;4.83;;;12.50;73.90;;;;;;952446;147;27322;-74
2022/05/01 00:25:31;;;;;;;6.37;5.33;;;12.50;73.90;;;;;;949849;147;27454;-74
2022/05/01 00:27:58;;;;;;;5.73;5.03;;;12.50;74.00;;;;;;951324;148;27373;-75
2022/05/01 00:30:26;;;;;;;5.20;4.80;;;12.50;74.10;;;;;;951366;148;27364;-74
2022/05/01 00:38:20;;;;;;;7.10;6.40;;;12.40;73.90;;;;;;949477;150;27431;-74
2022/05/01 00:40:47;;;;;;;8.60;6.30;;;12.40;73.90;;;;;;950040;148;27379;-74
2022/05/01 00:43:14;;;;;;;9.93;5.83;;;12.40;74.00;;;;;;950801;149;27295;-74
2022/05/01 00:45:41;;;;;;;6.60;6.00;;;12.30;73.90;;;;;;951392;148;27317;-74
2022/05/01 00:48:07;;;;;;;5.47;4.97;;;12.40;74.00;;;;;;952090;149;27330;-74
2022/05/01 00:50:33;;;;;;;6.07;5.20;;;12.40;74.10;;;;;;950234;147;27407;-74
2022/05/01 00:53:00;;;;;;;6.77;5.70;;;12.40;74.10;;;;;;950940;147;27323;-74
2022/05/01 00:55:26;;;;;;;9.27;5.97;;;12.30;74.00;;;;;;951581;150;28020;-74
2022/05/01 00:57:53;;;;;;;5.80;5.30;;;12.30;74.00;;;;;;951014;148;27311;-74
2022/05/01 01:00:20;;;;;;;6.03;5.43;;;12.30;74.40;;;;;;951635;148;27359;-74
2022/05/01 01:02:47;;;;;;;6.67;4.83;;;12.30;74.30;;;;;;950260;148;27786;-74
2022/05/01 01:05:13;;;;;;;5.37;4.87;;;12.30;74.40;;;;;;951967;150;27341;-74
2022/05/01 01:07:39;;;;;;;5.37;4.93;;;12.30;74.50;;;;;;948564;147;27279;-74
2022/05/01 01:10:06;;;;;;;6.10;5.10;;;12.30;74.60;;;;;;951247;148;27400;-74
2022/05/01 01:15:17;;;;;;;6.43;5.23;;;12.30;74.80;;;;;;950690;150;27484;-74
2022/05/01 01:17:46;;;;;;;6.63;5.13;;;12.30;74.70;;;;;;951597;147;27451;-75
2022/05/01 01:20:16;;;;;;;5.53;5.03;;;12.30;74.80;;;;;;950513;149;28247;-74
2022/05/01 01:22:44;;;;;;;5.73;5.23;;;12.30;74.80;;;;;;951234;147;27314;-74
2022/05/01 01:25:10;;;;;;;5.67;4.97;;;12.20;74.60;;;;;;953224;147;27875;-74
2022/05/01 01:27:36;;;;;;;5.83;5.23;;;12.20;74.80;;;;;;950928;149;27382;-75
2022/05/01 01:32:47;;;;;;;6.60;5.60;;;12.20;74.90;;;;;;950210;150;27315;-74
2022/05/01 01:35:13;;;;;;;6.30;5.73;;;12.20;75.00;;;;;;950406;150;27450;-74
2022/05/01 01:37:40;;;;;;;5.63;5.13;;;12.20;75.10;;;;;;950461;150;27332;-74
2022/05/01 01:40:07;;;;;;;6.17;5.60;;;12.20;75.10;;;;;;950948;150;27372;-74
2022/05/01 01:42:33;;;;;;;5.63;5.13;;;12.20;75.30;;;;;;951158;147;27350;-74
2022/05/01 01:45:00;;;;;;;6.50;5.27;;;12.20;75.30;;;;;;949994;147;27398;-74
2022/05/01 01:47:27;;;;;;;5.57;5.00;;;12.20;75.30;;;;;;953541;148;27287;-74
2022/05/01 01:49:53;;;;;;;7.33;5.40;;;12.20;75.30;;;;;;950430;148;27311;-74
2022/05/01 01:52:20;;;;;;;6.77;5.70;;;12.20;75.10;;;;;;950849;150;27417;-74
2022/05/01 01:54:46;;;;;;;6.17;5.57;;;12.20;75.20;;;;;;951018;148;27334;-74
2022/05/01 01:57:13;;;;;;;5.90;5.40;;;12.20;75.20;;;;;;950947;148;27327;-74
2022/05/01 01:59:39;;;;;;;6.70;5.60;;;12.20;75.30;;;;;;950662;150;27299;-74
2022/05/01 02:02:08;;;;;;;5.73;5.23;;;12.20;75.10;;;;;;951597;147;27298;-74
2022/05/01 02:04:33;;;;;;;6.77;5.47;;;12.20;75.30;;;;;;951580;148;27819;-74
2022/05/01 02:06:59;;;;;;;6.20;5.57;;;12.20;75.40;;;;;;952204;150;27419;-74
2022/05/01 02:09:26;;;;;;;6.90;5.30;;;12.20;75.40;;;;;;950245;148;27875;-74
2022/05/01 02:11:53;;;;;;;6.57;5.13;;;12.20;75.60;;;;;;950720;148;27694;-74
2022/05/01 02:14:19;;;;;;;5.87;5.30;;;12.20;75.60;;;;;;948966;150;27980;-74
2022/05/01 02:16:46;;;;;;;5.63;5.10;;;12.20;75.70;;;;;;938908;150;27394;-74
2022/05/01 02:19:12;;;;;;;5.60;5.10;;;12.20;75.80;;;;;;937633;151;27421;-74
2022/05/01 02:21:40;;;;;;;5.60;5.10;;;12.20;75.90;;;;;;937742;150;27421;-74
2022/05/01 02:24:08;;;;;;;5.60;5.10;;;12.20;76.00;;;;;;937753;151;27393;-74
2022/05/01 02:26:38;;;;;;;6.17;5.30;;;12.20;76.00;;;;;;939484;149;27413;-74
2022/05/01 02:29:02;;;;;;;6.03;5.43;;;12.20;76.00;;;;;;937615;151;27330;-74
2022/05/01 02:31:28;;;;;;;6.40;5.80;;;12.20;76.20;;;;;;938153;151;27328;-74
2022/05/01 02:33:54;;;;;;;5.60;5.10;;;12.20;76.40;;;;;;938455;151;27437;-74
2022/05/01 02:36:21;;;;;;;6.40;5.80;;;12.20;76.40;;;;;;938264;150;27320;-74
2022/05/01 02:38:49;;;;;;;8.73;6.10;;;12.20;76.40;;;;;;938933;150;27440;-74
2022/05/01 02:41:14;;;;;;;6.17;5.57;;;12.20;76.40;;;;;;937710;151;27354;-74
2022/05/01 02:43:41;;;;;;;5.87;5.10;;;12.20;76.50;;;;;;939684;151;27432;-74
2022/05/01 02:46:07;;;;;;;6.00;5.50;;;12.20;76.70;;;;;;938248;151;27737;-74
2022/05/01 02:48:34;;;;;;;6.37;5.23;;;12.20;76.70;;;;;;938395;150;27337;-74
2022/05/01 02:51:04;;;;;;;6.40;5.80;;;12.20;76.70;;;;;;938218;151;27305;-74
2022/05/01 02:53:27;;;;;;;5.50;5.00;;;12.10;76.80;;;;;;939223;151;27422;-74
2022/05/01 02:55:54;;;;;;;5.87;5.37;;;12.20;77.00;;;;;;938082;149;27370;-74
2022/05/01 02:58:20;;;;;;;6.37;5.27;;;12.20;76.90;;;;;;937517;151;27943;-74
2022/05/01 03:00:47;;;;;;;6.07;5.37;;;12.20;76.80;;;;;;938971;150;27325;-74
2022/05/01 03:03:14;;;;;;;6.23;5.60;;;12.20;76.90;;;;;;937491;150;27370;-74
2022/05/01 03:05:40;;;;;;;6.13;5.60;;;12.20;76.90;;;;;;938500;149;27319;-74
2022/05/01 03:08:07;;;;;;;6.57;5.80;;;12.20;76.90;;;;;;937770;149;27429;-74
2022/05/01 03:10:34;;;;;;;6.63;5.37;;;12.20;76.80;;;;;;938833;151;27370;-74
2022/05/01 03:13:00;;;;;;;6.07;5.47;;;12.20;76.70;;;;;;938927;151;27332;-74
2022/05/01 03:15:26;;;;;;;6.33;5.60;;;12.20;76.80;;;;;;939398;150;27465;-74
2022/05/01 03:23:23;;;;;;;6.10;4.70;;;12.10;76.50;;;;;;939004;151;27344;-74
2022/05/01 03:25:49;;;;;;;7.30;4.90;;;12.10;76.40;;;;;;939128;149;27351;-74
2022/05/01 03:28:16;;;;;;;5.70;5.20;;;12.10;76.40;;;;;;938268;149;27429;-74
2022/05/01 03:30:43;;;;;;;5.93;5.43;;;12.10;76.50;;;;;;939645;149;27417;-74
2022/05/01 03:33:10;;;;;;;6.20;5.33;;;12.10;76.50;;;;;;939015;149;27316;-74
2022/05/01 03:35:36;;;;;;;5.73;4.90;;;12.10;76.50;;;;;;937863;151;27325;-74
2022/05/01 03:38:02;;;;;;;5.73;5.10;;;12.10;76.50;;;;;;938710;150;27315;-74
2022/05/01 03:40:29;;;;;;;6.80;5.60;;;12.10;76.80;;;;;;938155;150;27343;-74
2022/05/01 03:42:56;;;;;;;5.63;5.13;;;12.00;76.70;;;;;;938051;151;27358;-74
2022/05/01 03:45:22;;;;;;;7.40;4.80;;;12.00;76.90;;;;;;938962;150;27396;-74
2022/05/01 03:47:49;;;;;;;5.87;5.37;;;12.00;76.90;;;;;;938534;151;27796;-73
2022/05/01 03:50:15;;;;;;;6.73;5.40;;;12.00;76.90;;;;;;937578;150;27440;-74
2022/05/01 03:52:42;;;;;;;5.53;5.03;;;12.00;76.90;;;;;;938495;151;27285;-74
2022/05/01 03:55:09;;;;;;;5.13;4.73;;;12.00;76.90;;;;;;938966;150;27352;-74
2022/05/01 03:57:35;;;;;;;7.50;5.60;;;11.90;76.90;;;;;;939300;151;27433;-74
2022/05/01 04:00:02;;;;;;;5.20;4.80;;;12.00;77.00;;;;;;937079;149;27373;-74
2022/05/01 04:02:28;;;;;;;6.23;5.63;;;12.00;77.00;;;;;;937256;151;27338;-74
2022/05/01 04:04:57;;;;;;;5.73;5.07;;;12.00;77.00;;;;;;938818;150;27321;-74
2022/05/01 04:07:22;;;;;;;5.43;4.93;;;11.90;76.90;;;;;;938428;151;27425;-74
2022/05/01 04:09:48;;;;;;;5.80;5.30;;;11.90;77.10;;;;;;938099;149;27421;-74
2022/05/01 04:12:15;;;;;;;5.43;4.87;;;11.90;77.10;;;;;;938665;149;27401;-74
2022/05/01 04:14:41;;;;;;;5.63;5.13;;;11.90;77.20;;;;;;938183;149;27820;-74
2022/05/01 04:17:08;;;;;;;5.90;5.40;;;11.90;77.10;;;;;;945516;150;27292;-74
2022/05/01 04:19:35;;;;;;;5.80;5.30;;;11.90;77.20;;;;;;945339;148;27323;-74
2022/05/01 04:22:01;;;;;;;5.37;4.97;;;11.90;77.40;;;;;;947043;148;27333;-74
2022/05/01 04:24:28;;;;;;;6.70;6.10;;;11.90;77.40;;;;;;945758;148;27400;-74
2022/05/01 04:26:55;;;;;;;6.00;5.50;;;11.90;77.50;;;;;;945935;148;27252;-73
2022/05/01 04:29:36;;;;;;;6.40;5.80;;;11.90;77.80;;;;;;946508;148;27349;-74
2022/05/01 04:32:03;;;;;;;6.57;5.87;;;11.90;77.90;;;;;;946045;148;27369;-74
2022/05/01 04:34:29;;;;;;;6.30;5.63;;;11.90;77.80;;;;;;946845;148;27423;-74
2022/05/01 04:36:58;;;;;;;7.67;5.70;;;11.90;77.80;;;;;;945324;148;27342;-73
2022/05/01 04:39:22;;;;;;;6.23;5.73;;;11.90;77.90;;;;;;945351;148;27315;-73
2022/05/01 04:41:49;;;;;;;6.70;6.13;;;11.90;78.00;;;;;;946646;148;27393;-74
2022/05/01 04:44:15;;;;;;;6.07;5.40;;;11.90;78.00;;;;;;946090;151;27991;-74
2022/05/01 04:46:43;;;;;;;8.50;5.37;;;12.00;78.10;;;;;;946157;148;27427;-74
2022/05/01 04:49:09;;;;;;;7.53;6.83;;;12.00;78.20;;;;;;946550;148;27351;-74
2022/05/01 04:51:35;;;;;;;8.60;7.70;;;12.00;78.40;;;;;;946694;148;27445;-74
2022/05/01 04:54:02;;;;;;;8.60;7.80;;;12.10;78.40;;;;;;946860;148;27345;-74
2022/05/01 04:59:13;;;;;;;7.53;6.90;;;12.10;78.30;;;;;;946250;148;27429;-74
2022/05/01 05:01:41;;;;;;;6.53;5.97;;;12.10;78.40;;;;;;946358;148;27492;-74
2022/05/01 05:04:06;;;;;;;5.83;5.33;;;12.10;78.50;;;;;;946811;148;27339;-73
2022/05/01 05:06:33;;;;;;;5.87;5.37;;;12.20;78.70;;;;;;945844;148;27326;-74
2022/05/01 05:11:44;;;;;;;7.17;5.17;;;12.20;78.80;;;;;;945057;148;27420;-74
2022/05/01 05:14:11;;;;;;;6.07;5.47;;;12.20;78.70;;;;;;944443;148;27354;-74
2022/05/01 05:16:37;;;;;;;5.97;5.47;;;12.30;78.90;;;;;;960290;146;27482;-74
2022/05/01 05:19:04;;;;;;;6.77;5.63;;;12.30;78.90;;;;;;957658;146;27327;-74
2022/05/01 05:21:30;;;;;;;5.87;5.37;;;12.30;78.90;;;;;;958083;146;27350;-73
2022/05/01 05:23:57;;;;;;;6.50;5.50;;;12.40;79.00;;;;;;957813;146;27928;-74
2022/05/01 05:26:24;;;;;;;5.40;5.00;;;12.40;79.00;;;;;;959217;146;27431;-74
2022/05/01 05:28:50;;;;;;;5.83;5.13;;;12.50;79.00;;;;;;959746;146;27722;-74
2022/05/01 05:31:17;;;;;;;5.90;5.37;;;12.50;79.00;;;;;;959287;146;27796;-74
2022/05/01 05:33:43;;;;;;;5.80;5.30;;;12.60;79.10;;;;;;960396;146;27388;-74
2022/05/01 05:36:10;;;;;;;5.67;5.17;;;12.60;79.00;;;;;;949903;148;27323;-74
2022/05/01 05:38:38;;;;;;;6.03;5.53;;;12.70;79.00;;;;;;941451;149;27342;-74
2022/05/01 05:41:03;;;;;;;5.67;5.23;;;12.80;79.00;;;;;;939887;150;27434;-74
2022/05/01 05:43:30;;;;;;;5.50;5.07;;;12.90;78.90;;;;;;939308;149;27457;-74
2022/05/01 05:45:56;;;;;;;6.20;5.47;;;12.90;78.80;;;;;;939748;149;27399;-74
2022/05/01 05:48:23;;;;;;;6.03;5.50;;;13.00;78.70;;;;;;939024;149;27321;-74
2022/05/01 05:50:49;;;;;;;6.00;5.40;;;13.10;78.60;;;;;;959804;146;27319;-73
2022/05/01 05:53:16;;;;;;;6.57;5.43;;;13.20;78.40;;;;;;960852;146;27357;-74
2022/05/01 05:55:45;;;;;;;5.37;4.87;;;13.20;78.40;;;;;;960199;146;27432;-74
2022/05/01 05:58:09;;;;;;;6.33;5.13;;;13.30;79.00;;;;;;958987;146;27408;-74
2022/05/01 06:00:36;;;;;;;5.67;5.00;;;13.40;78.70;;;;;;960030;146;27419;-74
2022/05/01 06:03:02;;;;;;;5.87;4.73;;;13.60;80.10;;;;;;959330;146;27483;-74
2022/05/01 06:05:29;;;;;;;5.43;4.87;;;13.80;79.70;;;;;;959111;146;27336;-74
2022/05/01 06:07:56;;;;;;;4.97;4.47;;;14.10;80.60;;;;;;959737;146;27342;-74
2022/05/01 06:10:22;;;;;;;4.80;4.37;;;14.40;81.20;;;;;;958114;146;27448;-74
2022/05/01 06:12:49;;;;;;;6.40;4.30;;;14.80;82.10;;;;;;957007;146;27313;-74
2022/05/01 06:15:15;;;;;;;4.67;3.95;;;15.40;83.20;;;;;;959372;146;27308;-74
2022/05/01 06:17:43;;;;;;;4.75;4.22;;;16.00;83.70;;;;;;951869;146;27555;-74
2022/05/01 06:20:09;;;;;;;4.30;3.90;;;16.70;83.40;;;;;;938673;149;27435;-74
2022/05/01 06:22:35;;;;;;;3.80;3.50;;;17.50;82.50;;;;;;939221;149;27384;-74
2022/05/01 06:25:02;;;;;;;3.22;3.02;;;18.30;81.00;;;;;;939989;149;27534;-72
2022/05/01 06:27:28;;;;;;;3.83;3.52;;;19.00;79.10;;;;;;939171;149;27341;-73
2022/05/01 06:29:55;;;;;;;4.85;3.60;;;19.70;75.60;;;;;;940576;149;27303;-74
2022/05/01 06:32:22;;;;;;;4.37;3.98;;;20.30;71.60;;;;;;939839;149;27344;-74
2022/05/01 06:34:48;;;;;;;3.90;3.60;;;20.60;68.60;;;;;;938302;149;27358;-73
2022/05/01 06:37:15;;;;;;;4.08;3.70;;;20.90;66.30;;;;;;940570;149;28433;-73
2022/05/01 06:39:41;;;;;;;3.80;3.45;;;20.90;64.60;;;;;;940204;149;27444;-73
2022/05/01 06:42:09;;;;;;;3.92;3.42;;;20.80;63.20;;;;;;939808;149;27830;-73
2022/05/01 06:44:35;;;;;;;5.50;3.83;;;20.70;62.30;;;;;;940002;149;27373;-73
2022/05/01 06:47:02;;;;;;;3.98;3.58;;;20.40;61.80;;;;;;939488;149;27354;-73
2022/05/01 06:49:28;;;;;;;3.85;3.52;;;20.20;61.70;;;;;;938595;149;27365;-74
2022/05/01 06:51:54;;;;;;;6.60;3.40;;;19.90;61.70;;;;;;939312;149;27379;-73
2022/05/01 06:54:22;;;;;;;3.67;3.37;;;19.70;61.90;;;;;;939866;149;27318;-74
2022/05/01 06:56:48;;;;;;;3.85;3.52;;;19.50;62.20;;;;;;939597;149;28585;-73
2022/05/01 06:59:15;;;;;;;3.42;3.12;;;19.30;62.50;;;;;;939025;149;27464;-73
2022/05/01 07:01:41;;;;;;;3.95;3.55;;;19.20;62.90;;;;;;939239;149;27459;-73
2022/05/01 07:04:07;;;;;;;4.03;3.55;;;19.10;63.10;;;;;;940097;149;27528;-73
2022/05/01 07:06:34;;;;;;;5.10;4.17;;;19.00;63.30;;;;;;940852;149;27422;-73
2022/05/01 07:09:01;;;;;;;4.10;3.70;;;18.90;63.30;;;;;;940160;149;27263;-73
2022/05/01 07:11:27;;;;;;;4.33;3.98;;;18.90;63.40;;;;;;938452;149;27369;-73
2022/05/01 07:13:54;;;;;;;5.40;4.05;;;18.80;63.50;;;;;;938451;149;27391;-73
2022/05/01 07:16:22;;;;;;;4.28;3.80;;;18.80;63.50;;;;;;940088;149;27365;-73
2022/05/01 07:18:47;;;;;;;4.05;3.67;;;18.70;63.40;;;;;;944708;148;27385;-73
2022/05/01 07:21:13;;;;;;;4.17;3.77;;;18.60;63.60;;;;;;949493;148;27348;-73
2022/05/01 07:23:40;;;;;;;4.55;3.67;;;18.60;63.60;;;;;;933217;149;27357;-73
2022/05/01 07:26:07;;;;;;;3.75;3.45;;;18.60;63.60;;;;;;951849;146;27416;-73
2022/05/01 07:28:34;;;;;;;3.87;3.58;;;18.60;63.70;;;;;;951738;146;27350;-73
2022/05/01 07:31:01;;;;;;;4.55;4.15;;;18.60;63.50;;;;;;950727;146;27691;-73
2022/05/01 07:33:26;;;;;;;4.17;3.55;;;18.60;63.40;;;;;;949868;146;27397;-74
2022/05/01 07:35:53;;;;;;;4.08;3.62;;;18.50;63.20;;;;;;951378;146;27422;-73
2022/05/01 07:38:20;;;;;;;3.87;3.50;;;18.50;63.30;;;;;;951682;146;27386;-73
2022/05/01 07:40:46;;;;;;;4.05;3.75;;;18.50;63.40;;;;;;947895;148;27433;-73
2022/05/01 07:43:13;;;;;;;3.95;3.60;;;18.50;63.50;;;;;;934614;149;27319;-73
2022/05/01 07:45:39;;;;;;;3.80;3.55;;;18.40;63.40;;;;;;951576;146;27324;-74
2022/05/01 07:48:06;;;;;;;4.20;3.80;;;18.50;63.20;;;;;;944508;148;27320;-73
2022/05/01 07:50:33;;;;;;;4.12;3.83;;;18.50;63.10;;;;;;954233;146;27443;-73
2022/05/01 07:52:59;;;;;;;4.85;3.87;;;18.50;63.10;;;;;;952945;146;27401;-73
2022/05/01 07:55:26;;;;;;;4.15;3.85;;;18.60;63.30;;;;;;951319;146;27323;-73
2022/05/01 07:57:52;;;;;;;3.90;3.50;;;18.70;63.40;;;;;;948302;148;27253;-74
2022/05/01 08:00:19;;;;;;;4.30;3.90;;;18.80;63.30;;;;;;934442;149;27319;-73
2022/05/01 08:05:30;;;;;;;4.78;4.03;;;19.10;63.20;;;;;;950751;146;27331;-73
2022/05/01 08:07:57;;;;;;;3.95;3.52;;;19.30;63.00;;;;;;952279;146;28087;-73
2022/05/01 08:10:23;;;;;;;4.08;3.72;;;19.50;62.70;;;;;;946831;148;27280;-73
2022/05/01 08:12:50;;;;;;;4.10;3.55;;;19.70;62.50;;;;;;948084;148;27341;-74
2022/05/01 08:15:19;;;;;;;4.17;3.83;;;19.90;62.70;;;;;;933227;149;27346;-73
2022/05/01 08:17:46;;;;;;;4.10;3.33;;;20.20;62.70;;;;;;934334;149;27382;-74
2022/05/01 08:23:06;;;;;;;4.03;3.60;;;21.20;64.20;;;;;;943176;149;27357;-73
2022/05/01 08:25:33;;;;;;;3.33;3.02;;;22.00;64.80;;;;;;942265;149;27427;-74
2022/05/01 08:27:59;;;;;;;3.25;2.92;;;22.90;64.20;;;;;;943626;148;27464;-74
2022/05/01 08:30:26;;;;;;;3.33;2.98;;;23.80;63.60;;;;;;941344;149;27330;-74
2022/05/01 08:32:53;;;;;;;3.02;2.83;;;24.80;61.50;;;;;;927371;151;27361;-74
2022/05/01 08:35:19;;;;;;;3.00;2.75;;;25.80;60.50;;;;;;928434;151;27342;-74
2022/05/01 08:37:46;;;;;;;4.37;2.85;;;26.70;59.40;;;;;;928151;151;27334;-74
2022/05/01 08:40:12;;;;;;;5.15;3.47;;;27.60;58.30;;;;;;927950;151;27330;-74
2022/05/01 08:42:39;;;;;;;3.37;3.02;;;28.50;55.80;;;;;;943421;151;27438;-74
2022/05/01 08:45:08;;;;;;;3.30;3.00;;;29.20;54.40;;;;;;941805;151;27441;-74
2022/05/01 08:47:41;;;;;;;3.10;2.80;;;29.90;53.20;;;;;;944420;148;27349;-74
2022/05/01 08:50:07;;;;;;;3.37;2.62;;;30.50;52.30;;;;;;944335;148;27818;-74
2022/05/01 08:52:34;;;;;;;3.45;2.62;;;31.00;51.50;;;;;;945214;148;27356;-74
2022/05/01 08:55:01;;;;;;;4.83;3.25;;;31.40;50.20;;;;;;942458;148;27314;-74
2022/05/01 08:57:28;;;;;;;4.62;2.55;;;31.90;49.40;;;;;;943218;148;27321;-74
2022/05/01 08:59:54;;;;;;;3.75;3.25;;;32.20;48.70;;;;;;943271;149;27865;-74
2022/05/01 09:02:20;;;;;;;3.37;2.95;;;32.50;47.40;;;;;;942296;148;27290;-74
2022/05/01 09:04:47;;;;;;;4.10;2.87;;;32.80;47.00;;;;;;942336;151;27357;-74
2022/05/01 09:07:14;;;;;;;3.50;3.20;;;33.10;46.90;;;;;;941702;149;27309;-74
2022/05/01 09:09:40;;;;;;;4.03;2.45;;;33.30;45.70;;;;;;928682;151;27460;-74
2022/05/01 09:14:51;;;;;;;4.10;2.90;;;33.70;44.60;;;;;;925227;151;27467;-74
2022/05/01 09:17:19;;;;;;;4.05;3.40;;;33.80;44.40;;;;;;942156;148;27282;-74
2022/05/01 09:19:45;;;;;;;4.62;2.98;;;33.90;43.10;;;;;;941801;148;26289;-74
2022/05/01 09:22:12;;;;;;;4.62;3.67;;;33.80;42.50;;;;;;941560;148;27399;-74
2022/05/01 09:24:38;;;;;;;3.35;3.12;;;33.70;41.80;;;;;;944096;148;27346;-74
2022/05/01 09:27:04;;;;;;;3.37;3.08;;;33.40;41.70;;;;;;943743;148;27357;-74
2022/05/01 09:29:36;;;;;;;4.08;2.67;;;33.20;41.70;;;;;;927207;150;27676;-74
2022/05/01 09:32:01;;;;;;;3.30;3.00;;;33.00;42.20;;;;;;941159;148;27412;-74
2022/05/01 09:34:33;;;;;;;3.85;2.95;;;33.00;42.50;;;;;;942273;148;27307;-74
2022/05/01 09:37:03;;;;;;;2.92;2.72;;;33.00;42.70;;;;;;942589;148;27501;-74
2022/05/01 09:39:29;;;;;;;2.98;2.67;;;33.10;42.90;;;;;;941070;148;27258;-74
2022/05/01 09:41:55;;;;;;;3.37;3.08;;;33.20;42.30;;;;;;939538;148;26227;-74
2022/05/01 09:44:22;;;;;;;3.17;2.87;;;33.40;42.10;;;;;;940390;148;27338;-74
2022/05/01 09:46:48;;;;;;;3.10;2.85;;;33.60;41.80;;;;;;938882;149;26291;-74
2022/05/01 09:49:15;;;;;;;2.75;2.52;;;33.60;41.00;;;;;;940127;149;27557;-74
2022/05/01 09:51:43;;;;;;;3.75;3.05;;;33.70;40.80;;;;;;941415;149;26866;-74
2022/05/01 09:54:08;;;;;;;5.17;3.20;;;33.70;40.50;;;;;;939642;149;26301;-74
2022/05/01 09:56:47;;;;;;;3.65;3.37;;;33.60;40.10;;;;;;943089;148;27294;-74
2022/05/01 09:59:13;;;;;;;4.83;3.20;;;33.50;39.90;;;;;;941684;148;27318;-74
2022/05/01 10:01:40;;;;;;;3.12;2.83;;;33.40;40.00;;;;;;940700;148;27447;-74
2022/05/01 10:04:06;;;;;;;4.28;3.10;;;33.30;39.80;;;;;;943341;148;27473;-74
2022/05/01 10:06:33;;;;;;;3.05;2.77;;;33.10;39.40;;;;;;942041;148;27801;-74
2022/05/01 10:09:02;;;;;;;5.28;2.90;;;33.00;39.30;;;;;;939353;148;27391;-74
2022/05/01 10:11:26;;;;;;;3.08;2.80;;;32.80;39.30;;;;;;940693;149;27759;-74
2022/05/01 10:13:53;;;;;;;2.90;2.62;;;32.60;39.50;;;;;;938731;149;27376;-74
2022/05/01 10:16:20;;;;;;;3.83;3.20;;;32.40;39.30;;;;;;940310;149;27346;-74
2022/05/01 10:18:46;;;;;;;4.03;3.27;;;32.20;39.30;;;;;;938369;149;27867;-74
2022/05/01 10:21:13;;;;;;;5.30;3.45;;;32.10;39.10;;;;;;930224;150;28131;-74
2022/05/01 10:23:40;;;;;;;3.33;3.08;;;31.90;39.20;;;;;;928171;151;27325;-74
2022/05/01 10:26:18;;;;;;;3.20;2.92;;;31.70;39.10;;;;;;928673;151;27306;-74
2022/05/01 10:28:56;;;;;;;2.87;2.60;;;31.50;39.20;;;;;;925997;153;27366;-74
2022/05/01 10:34:46;;;;;;;4.25;3.45;;;31.20;39.20;;;;;;925510;151;27433;-74
2022/05/01 10:37:10;;;;;;;4.00;3.65;;;31.10;38.50;;;;;;925089;151;27431;-74
2022/05/01 10:39:36;;;;;;;3.50;3.20;;;30.80;38.30;;;;;;924925;151;27407;-74
2022/05/01 10:42:03;;;;;;;3.58;3.35;;;30.50;39.00;;;;;;928740;151;27446;-74
2022/05/01 10:44:36;;;;;;;3.67;3.37;;;30.20;38.40;;;;;;925257;151;27376;-74
2022/05/01 10:47:16;;;;;;;3.55;3.10;;;29.80;38.60;;;;;;940655;149;27330;-74
2022/05/01 10:49:41;;;;;;;3.42;3.12;;;29.40;39.20;;;;;;926326;151;27483;-74
2022/05/01 10:52:20;;;;;;;5.00;3.65;;;29.10;39.60;;;;;;929322;151;27415;-74
2022/05/01 10:54:56;;;;;;;4.12;3.80;;;28.80;40.30;;;;;;928523;151;27386;-73
2022/05/01 10:57:23;;;;;;;4.22;3.72;;;28.60;40.00;;;;;;926511;151;27823;-73
2022/05/01 10:59:48;;;;;;;4.17;3.80;;;28.40;39.50;;;;;;925893;154;27371;-73
2022/05/01 11:02:36;;;;;;;3.95;3.65;;;28.10;39.90;;;;;;943686;151;27734;-73
2022/05/01 11:05:03;;;;;;;3.65;3.35;;;27.90;40.20;;;;;;941688;149;27376;-73
2022/05/01 11:07:30;;;;;;;5.58;3.30;;;27.70;40.50;;;;;;942900;149;27362;-73
2022/05/01 11:10:00;;;;;;;4.25;3.50;;;27.40;40.70;;;;;;942059;151;27734;-73
2022/05/01 11:12:26;;;;;;;4.17;3.05;;;27.30;40.90;;;;;;941550;148;27358;-73
2022/05/01 11:14:52;;;;;;;4.45;3.95;;;27.10;41.10;;;;;;941696;148;27748;-74
2022/05/01 11:17:37;;;;;;;3.60;3.33;;;27.00;41.20;;;;;;943321;151;28198;-74
2022/05/01 11:20:08;;;;;;;3.52;3.22;;;26.80;41.50;;;;;;943130;148;27811;-74
2022/05/01 11:22:33;;;;;;;5.90;4.50;;;26.70;41.70;;;;;;931250;148;27349;-74
2022/05/01 11:25:00;;;;;;;5.37;4.00;;;26.70;41.30;;;;;;939597;149;27373;-74
2022/05/01 11:27:26;;;;;;;4.47;3.65;;;26.60;41.50;;;;;;940884;149;27424;-74
2022/05/01 11:30:13;;;;;;;4.10;3.80;;;26.50;41.70;;;;;;942671;149;27339;-74
2022/05/01 11:32:44;;;;;;;4.17;3.87;;;26.50;41.80;;;;;;940277;149;27462;-74
2022/05/01 11:35:11;;;;;;;5.78;4.22;;;26.40;42.10;;;;;;942715;148;27344;-74
2022/05/01 11:37:46;;;;;;;4.10;3.72;;;26.40;42.30;;;;;;942480;148;27767;-74
2022/05/01 11:40:13;;;;;;;4.35;3.90;;;26.40;42.30;;;;;;936646;149;27447;-74
2022/05/01 11:42:41;;;;;;;4.40;4.00;;;26.30;42.20;;;;;;939345;148;27318;-74
2022/05/01 11:45:08;;;;;;;5.00;3.85;;;26.30;42.00;;;;;;941807;148;27333;-73
2022/05/01 11:47:33;;;;;;;4.75;4.30;;;26.20;41.90;;;;;;941000;148;27427;-73
2022/05/01 11:49:59;;;;;;;4.10;3.80;;;26.10;41.20;;;;;;942691;148;27723;-74
2022/05/01 11:52:26;;;;;;;4.17;3.87;;;26.00;42.10;;;;;;942162;149;27423;-73
2022/05/01 11:54:55;;;;;;;5.08;4.20;;;25.90;42.40;;;;;;942974;149;27353;-74
2022/05/01 12:02:58;;;;;;;4.10;3.75;;;25.60;42.50;;;;;;923826;153;27420;-73
2022/05/01 12:05:25;;;;;;;5.42;4.25;;;25.50;42.50;;;;;;930244;148;27406;-73
2022/05/01 12:07:55;;;;;;;4.17;3.77;;;25.40;42.60;;;;;;942538;149;27354;-74
2022/05/01 12:10:20;;;;;;;4.47;3.90;;;25.30;42.70;;;;;;941578;149;27364;-73
2022/05/01 12:12:47;;;;;;;6.92;3.77;;;25.20;42.90;;;;;;941517;149;27403;-73
2022/05/01 12:15:13;;;;;;;5.83;3.42;;;25.20;43.20;;;;;;942115;149;27796;-73
2022/05/01 12:17:40;;;;;;;4.15;3.85;;;25.20;43.40;;;;;;942482;148;27457;-73
2022/05/01 12:20:07;;;;;;;4.50;4.10;;;25.20;43.50;;;;;;942745;149;27418;-73
2022/05/01 12:22:39;;;;;;;4.35;3.95;;;25.20;43.30;;;;;;942820;148;27428;-74
2022/05/01 12:25:10;;;;;;;4.33;3.95;;;25.20;43.30;;;;;;943243;149;27431;-74
2022/05/01 12:27:35;;;;;;;4.15;3.45;;;25.20;43.40;;;;;;940778;149;27343;-74
2022/05/01 12:30:01;;;;;;;5.62;4.33;;;25.30;43.50;;;;;;941732;149;27434;-73
2022/05/01 12:32:28;;;;;;;5.33;4.03;;;25.40;43.50;;;;;;941206;149;27527;-73
2022/05/01 12:34:57;;;;;;;4.12;3.83;;;25.40;43.30;;;;;;939774;148;28548;-73
2022/05/01 12:37:34;;;;;;;5.33;3.95;;;25.40;43.30;;;;;;941372;149;28042;-74
2022/05/01 12:39:56;;;;;;;4.10;3.80;;;25.40;43.30;;;;;;938255;148;27445;-73
2022/05/01 12:45:11;;;;;;;4.67;4.15;;;25.20;43.10;;;;;;941467;148;27946;-73
2022/05/01 12:47:38;;;;;;;4.28;3.80;;;25.20;43.20;;;;;;940099;149;27481;-73
2022/05/01 12:50:04;;;;;;;4.67;4.00;;;25.00;43.10;;;;;;941975;148;27382;-73
2022/05/01 12:52:34;;;;;;;5.83;4.00;;;24.90;43.30;;;;;;942030;149;27335;-73
2022/05/01 12:55:18;;;;;;;4.55;3.90;;;24.80;44.00;;;;;;941324;149;27319;-73
2022/05/01 12:57:53;;;;;;;4.15;3.85;;;24.60;43.30;;;;;;941695;149;27376;-73
2022/05/01 13:00:38;;;;;;;4.53;4.12;;;24.40;43.30;;;;;;938401;149;27345;-73
2022/05/01 13:03:29;;;;;;;4.60;4.20;;;24.20;43.30;;;;;;928737;149;27463;-73
2022/05/01 13:06:07;;;;;;;4.12;3.83;;;23.90;43.50;;;;;;941430;149;27349;-73
2022/05/01 13:08:34;;;;;;;4.08;3.70;;;23.70;43.60;;;;;;940305;149;27342;-73
2022/05/01 13:11:09;;;;;;;4.67;4.25;;;23.50;43.70;;;;;;940439;149;27376;-73
2022/05/01 13:13:51;;;;;;;3.98;3.60;;;23.20;44.00;;;;;;941547;149;28329;-73
2022/05/01 13:16:17;;;;;;;4.90;3.55;;;23.00;44.40;;;;;;938773;149;27405;-73
2022/05/01 13:18:44;;;;;;;3.95;3.67;;;22.80;44.70;;;;;;941453;149;27321;-73
2022/05/01 13:21:10;;;;;;;4.40;4.00;;;22.70;45.00;;;;;;943593;148;27376;-73
2022/05/01 13:23:37;;;;;;;4.22;3.87;;;22.50;45.30;;;;;;942348;151;27369;-72
2022/05/01 13:26:03;;;;;;;4.92;4.45;;;22.40;45.50;;;;;;941906;148;27445;-72
2022/05/01 13:28:30;;;;;;;3.75;3.40;;;22.30;45.60;;;;;;943044;148;27434;-72
2022/05/01 13:30:57;;;;;;;4.28;3.80;;;22.30;45.70;;;;;;941377;149;27440;-72